createdAt,value
2023-04-28T00:00:58.295Z,48.54
2023-04-28T00:03:24.968Z,48.32
2023-04-28T00:05:51.709Z,48.38
2023-04-28T00:08:18.434Z,48.40
2023-04-28T00:10:44.978Z,48.35
2023-04-28T00:13:11.537Z,48.58
2023-04-28T00:15:38.096Z,48.44
2023-04-28T00:18:04.657Z,48.50
2023-04-28T00:20:31.217Z,48.41
2023-04-28T00:22:57.761Z,48.42
2023-04-28T00:25:24.300Z,48.63
2023-04-28T00:27:50.838Z,48.74
2023-04-28T00:30:17.438Z,48.61
2023-04-28T00:32:44.037Z,48.61
2023-04-28T00:35:10.663Z,48.59
2023-04-28T00:37:37.314Z,48.44
2023-04-28T00:40:03.859Z,48.57
2023-04-28T00:42:30.414Z,48.47
2023-04-28T00:44:56.962Z,48.69
2023-04-28T00:47:23.529Z,48.46
2023-04-28T00:49:50.096Z,48.46
2023-04-28T00:52:16.688Z,48.47
2023-04-28T00:54:43.271Z,48.63
2023-04-28T00:57:09.831Z,48.68
2023-04-28T00:59:36.391Z,48.57
2023-04-28T05:05:25.622Z,49.22
2023-04-28T05:07:52.198Z,49.29
2023-04-28T05:10:18.747Z,49.33
2023-04-28T05:12:47.610Z,49.34
2023-04-28T05:15:15.697Z,49.38
2023-04-28T05:17:42.273Z,49.25
2023-04-28T05:20:09.400Z,49.31
2023-04-28T05:22:36.433Z,49.31
2023-04-28T05:25:02.975Z,49.28
2023-04-28T05:27:29.525Z,48.98
2023-04-28T05:29:56.069Z,49.15
2023-04-28T05:32:23.067Z,49.08
2023-04-28T05:34:49.703Z,49.09
2023-04-28T05:37:16.252Z,49.13
2023-04-28T05:39:42.804Z,49.25
2023-04-28T05:42:09.376Z,49.15
2023-04-28T05:44:35.958Z,49.27
2023-04-28T05:47:02.563Z,49.04
2023-04-28T05:49:29.136Z,49.30
2023-04-28T05:51:55.672Z,49.18
2023-04-28T05:54:22.222Z,49.11
2023-04-28T05:56:48.778Z,49.01
2023-04-28T05:59:15.628Z,49.02
2023-04-28T06:01:42.451Z,49.21
2023-04-28T06:04:09.168Z,49.15
2023-04-28T06:06:35.899Z,49.25
2023-04-28T06:09:02.473Z,49.30
2023-04-28T06:11:29.030Z,49.15
2023-04-28T06:13:55.577Z,48.93
2023-04-28T06:16:22.164Z,48.86
2023-04-28T06:18:49.834Z,49.29
2023-04-28T06:21:16.577Z,49.20
2023-04-28T06:23:43.141Z,49.09
2023-04-28T06:26:09.768Z,49.13
2023-04-28T06:28:36.340Z,49.31
2023-04-28T06:31:02.949Z,49.37
2023-04-28T06:33:29.520Z,49.26
2023-04-28T06:35:56.076Z,49.30
2023-04-28T06:38:22.635Z,49.27
2023-04-28T06:40:49.238Z,49.23
2023-04-28T06:43:15.763Z,49.29
2023-04-28T06:45:42.350Z,49.44
2023-04-28T06:48:08.934Z,49.33
2023-04-28T06:50:35.492Z,49.32
2023-04-28T06:53:02.035Z,49.32
2023-04-28T06:55:28.585Z,49.25
2023-04-28T06:57:55.157Z,49.47
2023-04-28T07:00:21.737Z,49.40
2023-04-28T07:02:48.464Z,49.48
2023-04-28T07:05:16.212Z,49.34
2023-04-28T07:07:43.263Z,49.44
2023-04-28T07:10:09.864Z,49.29
2023-04-28T07:12:36.405Z,49.32
2023-04-28T07:15:02.975Z,49.32
2023-04-28T07:17:29.551Z,49.32
2023-04-28T07:19:56.145Z,49.31
2023-04-28T07:22:22.842Z,49.46
2023-04-28T07:24:49.413Z,49.26
2023-04-28T07:27:16.200Z,49.38
2023-04-28T07:29:42.858Z,49.31
2023-04-28T07:32:09.458Z,49.38
2023-04-28T07:34:36.007Z,49.25
2023-04-28T07:37:02.573Z,49.30
2023-04-28T07:39:29.124Z,49.38
2023-04-28T07:41:55.772Z,49.32
2023-04-28T07:44:22.322Z,49.29
2023-04-28T07:46:51.540Z,49.09
2023-04-28T07:49:18.737Z,49.10
2023-04-28T07:51:45.278Z,49.05
2023-04-28T07:54:11.826Z,49.24
2023-04-28T07:56:38.401Z,49.16
2023-04-28T07:59:04.936Z,49.23
2023-04-28T08:01:31.499Z,49.37
2023-04-28T08:03:58.173Z,49.39
2023-04-28T08:06:24.857Z,49.20
2023-04-28T08:08:51.445Z,49.13
2023-04-28T08:11:18.007Z,49.17
2023-04-28T08:13:44.553Z,49.32
2023-04-28T08:16:11.149Z,49.26
2023-04-28T08:18:37.789Z,49.10
2023-04-28T08:21:04.398Z,49.15
2023-04-28T08:23:30.974Z,49.18
2023-04-28T08:25:57.529Z,49.04
2023-04-28T08:28:24.061Z,49.10
2023-04-28T08:30:50.609Z,49.11
2023-04-28T08:33:17.255Z,49.13
2023-04-28T08:35:43.854Z,49.21
2023-04-28T08:38:10.429Z,49.23
2023-04-28T08:40:36.988Z,49.33
2023-04-28T08:43:03.543Z,49.16
2023-04-28T08:45:30.093Z,49.16
2023-04-28T08:47:56.696Z,49.12
2023-04-28T08:50:23.262Z,49.18
2023-04-28T08:52:49.799Z,49.06
2023-04-28T08:55:16.365Z,48.97
2023-04-28T08:57:42.914Z,48.99
2023-04-28T09:00:10.644Z,49.11
2023-04-28T09:02:37.285Z,49.08
2023-04-28T09:05:04.181Z,49.09
2023-04-28T09:07:30.932Z,49.17
2023-04-28T09:09:57.461Z,48.98
2023-04-28T09:12:24.015Z,49.01
2023-04-28T09:14:50.545Z,48.88
2023-04-28T09:17:17.090Z,48.80
2023-04-28T09:19:43.646Z,49.43
2023-04-28T09:22:24.913Z,49.41
2023-04-28T09:24:52.586Z,49.58
2023-04-28T09:27:19.164Z,49.45
2023-04-28T09:29:45.708Z,49.53
2023-04-28T09:32:12.412Z,49.80
2023-04-28T09:34:39.012Z,49.91
2023-04-28T09:37:05.566Z,49.90
2023-04-28T09:39:32.124Z,49.80
2023-04-28T09:41:58.715Z,49.71
2023-04-28T09:44:25.256Z,49.62
2023-04-28T09:46:51.791Z,49.71
2023-04-28T09:49:18.332Z,49.54
2023-04-28T09:51:44.888Z,49.48
2023-04-28T09:54:11.445Z,49.48
2023-04-28T09:56:40.627Z,49.53
2023-04-28T09:59:07.372Z,49.76
2023-04-28T10:01:33.995Z,49.80
2023-04-28T10:04:00.861Z,49.72
2023-04-28T10:06:27.478Z,49.83
2023-04-28T10:08:54.016Z,49.80
2023-04-28T10:11:20.581Z,49.87
2023-04-28T10:13:47.146Z,50.03
2023-04-28T10:16:13.712Z,49.88
2023-04-28T10:18:40.323Z,49.96
2023-04-28T10:21:06.863Z,49.96
2023-04-28T10:23:33.399Z,49.87
2023-04-28T10:25:59.970Z,49.97
2023-04-28T10:28:26.548Z,50.07
2023-04-28T10:30:53.122Z,49.99
2023-04-28T10:33:19.722Z,50.01
2023-04-28T10:35:46.302Z,49.90
2023-04-28T10:38:12.854Z,50.05
2023-04-28T10:40:39.404Z,50.36
2023-04-28T10:43:06.038Z,50.08
2023-04-28T10:45:34.636Z,50.17
2023-04-28T10:48:01.787Z,50.06
2023-04-28T10:50:38.519Z,50.08
2023-04-28T10:53:05.831Z,50.06
2023-04-28T10:55:32.402Z,50.19
2023-04-28T10:57:58.966Z,50.19
2023-04-28T11:00:25.518Z,50.14
2023-04-28T11:02:52.197Z,50.18
2023-04-28T11:05:19.111Z,50.01
2023-04-28T11:07:45.933Z,50.02
2023-04-28T11:10:12.546Z,50.08
2023-04-28T11:12:39.128Z,50.11
2023-04-28T11:15:05.662Z,50.17
2023-04-28T11:17:32.296Z,50.15
2023-04-28T11:19:58.847Z,50.14
2023-04-28T11:22:25.426Z,50.07
2023-04-28T11:24:54.021Z,50.00
2023-04-28T11:27:20.627Z,49.98
2023-04-28T11:29:47.185Z,50.01
2023-04-28T11:32:13.989Z,49.91
2023-04-28T11:34:40.610Z,49.81
2023-04-28T11:37:07.229Z,49.80
2023-04-28T11:39:33.980Z,49.89
2023-04-28T11:42:00.553Z,50.09
2023-04-28T11:44:27.113Z,49.84
2023-04-28T11:46:53.678Z,50.15
2023-04-28T11:49:20.273Z,50.07
2023-04-28T11:51:46.849Z,50.06
2023-04-28T11:54:13.429Z,50.18
2023-04-28T11:56:40.005Z,50.01
2023-04-28T11:59:06.551Z,50.12
2023-04-28T12:01:33.139Z,50.25
2023-04-28T12:03:59.761Z,50.20
2023-04-28T12:06:26.485Z,50.24
2023-04-28T12:08:53.050Z,50.17
2023-04-28T12:11:20.349Z,50.35
2023-04-28T12:13:47.293Z,50.13
2023-04-28T12:16:13.890Z,50.26
2023-04-28T12:18:40.505Z,50.24
2023-04-28T12:21:07.054Z,50.28
2023-04-28T12:23:33.626Z,50.21
2023-04-28T12:26:00.190Z,50.11
2023-04-28T12:28:26.751Z,50.23
2023-04-28T12:30:53.297Z,50.22
2023-04-28T12:33:19.880Z,50.24
2023-04-28T12:35:46.442Z,50.24
2023-04-28T12:38:12.996Z,50.12
2023-04-28T12:40:39.548Z,50.02
2023-04-28T12:43:06.132Z,50.27
2023-04-28T12:45:32.707Z,50.24
2023-04-28T12:47:59.275Z,50.14
2023-04-28T12:50:25.884Z,50.36
2023-04-28T12:52:52.439Z,50.33
2023-04-28T12:55:18.999Z,50.40
2023-04-28T12:57:45.545Z,50.47
2023-04-28T13:00:12.082Z,50.29
2023-04-28T13:02:38.755Z,50.44
2023-04-28T13:05:05.560Z,50.51
2023-04-28T13:07:32.202Z,50.28
2023-04-28T13:09:58.756Z,50.38
2023-04-28T13:12:25.342Z,50.37
2023-04-28T13:14:51.899Z,50.28
2023-04-28T13:17:18.478Z,50.28
2023-04-28T13:19:45.331Z,50.55
2023-04-28T13:22:12.519Z,50.39
2023-04-28T13:24:39.168Z,50.40
2023-04-28T13:27:05.758Z,50.45
2023-04-28T13:29:32.388Z,50.18
2023-04-28T13:31:58.978Z,50.22
2023-04-28T13:34:25.565Z,50.04
2023-04-28T13:36:52.121Z,49.97
2023-04-28T13:39:18.688Z,49.95
2023-04-28T13:41:45.235Z,49.87
2023-04-28T13:44:11.822Z,49.90
2023-04-28T13:46:38.372Z,49.76
2023-04-28T13:49:04.924Z,49.71
2023-04-28T13:51:31.468Z,49.72
2023-04-28T13:53:58.026Z,49.69
2023-04-28T13:56:24.593Z,49.74
2023-04-28T13:58:51.133Z,49.78
2023-04-28T14:01:17.745Z,49.80
2023-04-28T14:03:44.545Z,49.88
2023-04-28T14:06:11.305Z,49.78
2023-04-28T14:08:37.907Z,49.81
2023-04-28T14:11:04.454Z,49.94
2023-04-28T14:13:31.028Z,49.93
2023-04-28T14:15:59.585Z,49.76
2023-04-28T14:18:26.560Z,49.72
2023-04-28T14:20:53.113Z,49.69
2023-04-28T14:23:19.668Z,49.68
2023-04-28T14:25:46.261Z,49.62
2023-04-28T14:28:12.856Z,49.49
2023-04-28T14:30:39.415Z,49.50
2023-04-28T14:33:06.030Z,49.44
2023-04-28T14:35:32.638Z,49.46
2023-04-28T14:37:59.188Z,49.41
2023-04-28T14:40:25.788Z,49.31
2023-04-28T14:42:52.374Z,49.49
2023-04-28T14:45:18.919Z,49.31
2023-04-28T14:47:45.528Z,49.43
2023-04-28T14:50:13.851Z,49.30
2023-04-28T14:52:40.768Z,49.44
2023-04-28T14:55:07.325Z,49.39
2023-04-28T14:57:33.878Z,49.38
2023-04-28T15:00:00.427Z,49.38
2023-04-28T15:02:28.037Z,49.26
2023-04-28T15:04:54.879Z,49.29
2023-04-28T15:07:21.514Z,49.36
2023-04-28T15:09:48.061Z,49.37
2023-04-28T15:12:14.617Z,49.40
2023-04-28T15:14:41.185Z,49.53
2023-04-28T15:17:07.765Z,49.73
2023-04-28T15:19:34.318Z,50.05
2023-04-28T15:22:00.856Z,50.12
2023-04-28T15:24:27.409Z,50.50
2023-04-28T15:26:53.966Z,50.30
2023-04-28T15:29:20.541Z,50.25
2023-04-28T15:31:47.141Z,50.82
2023-04-28T15:34:13.772Z,50.83
2023-04-28T15:36:40.335Z,50.57
2023-04-28T15:39:06.908Z,50.84
2023-04-28T15:41:33.455Z,50.72
2023-04-28T15:44:00.012Z,51.02
2023-04-28T15:46:26.583Z,50.90
2023-04-28T15:48:53.141Z,50.79
2023-04-28T15:51:19.707Z,51.07
2023-04-28T15:53:46.270Z,50.98
2023-04-28T15:56:12.845Z,50.75
2023-04-28T15:58:39.407Z,50.75
2023-04-28T16:01:05.989Z,50.44
2023-04-28T16:03:32.744Z,49.92
2023-04-28T16:05:59.418Z,49.54
2023-04-28T16:08:25.959Z,48.87
2023-04-28T16:10:52.499Z,48.40
2023-04-28T16:13:20.467Z,47.86
2023-04-28T16:15:47.076Z,48.06
2023-04-28T16:18:13.721Z,48.12
2023-04-28T16:20:40.352Z,48.32
2023-04-28T16:23:06.903Z,48.40
2023-04-28T16:25:33.493Z,48.47
2023-04-28T16:28:00.043Z,48.84
2023-04-28T16:30:26.603Z,48.68
2023-04-28T16:32:53.191Z,48.96
2023-04-28T16:35:19.812Z,49.27
2023-04-28T16:37:46.375Z,49.55
2023-04-28T16:40:12.957Z,49.84
2023-04-28T16:42:39.734Z,49.89
2023-04-28T16:45:06.353Z,49.68
2023-04-28T16:50:15.959Z,49.63
2023-04-28T16:52:42.494Z,49.78
2023-04-28T16:55:09.078Z,49.50
2023-04-28T16:57:35.607Z,49.13
2023-04-28T17:00:02.132Z,48.76
2023-04-28T17:02:28.764Z,48.37
2023-04-28T17:04:55.430Z,48.13
2023-04-28T17:07:24.065Z,48.06
2023-04-28T17:09:52.540Z,47.84
2023-04-28T17:12:19.387Z,47.69
2023-04-28T17:14:46.011Z,47.49
2023-04-28T17:17:12.605Z,47.49
2023-04-28T17:19:39.152Z,47.60
2023-04-28T17:22:05.701Z,47.54
2023-04-28T17:24:32.248Z,47.46
2023-04-28T17:26:58.802Z,47.55
2023-04-28T17:29:25.378Z,47.62
2023-04-28T17:31:52.026Z,47.45
2023-04-28T17:34:18.694Z,47.61
2023-04-28T17:36:45.259Z,47.54
2023-04-28T17:39:12.730Z,47.63
2023-04-28T17:41:40.753Z,47.64
2023-04-28T17:44:07.285Z,47.66
2023-04-28T17:46:33.851Z,47.75
2023-04-28T17:49:00.475Z,47.78
2023-04-28T17:51:27.088Z,48.10
2023-04-28T17:53:53.694Z,47.82
2023-04-28T17:56:20.229Z,48.10
2023-04-28T17:58:46.761Z,48.06
2023-04-28T18:01:13.309Z,48.16
2023-04-28T18:03:40.016Z,47.97
2023-04-28T18:06:06.661Z,48.00
2023-04-28T18:08:33.428Z,48.09
2023-04-28T18:10:59.965Z,48.02
2023-04-28T18:13:26.500Z,48.04
2023-04-28T18:15:53.084Z,48.15
2023-04-28T18:18:19.652Z,48.08
2023-04-28T18:20:46.201Z,47.97
2023-04-28T18:23:12.733Z,47.92
2023-04-28T18:25:39.267Z,48.01
2023-04-28T18:28:05.814Z,47.98
2023-04-28T18:30:32.360Z,48.01
2023-04-28T18:32:58.954Z,48.09
2023-04-28T18:35:25.530Z,48.23
2023-04-28T18:37:52.070Z,48.15
2023-04-28T18:40:18.640Z,48.09
2023-04-28T18:42:45.178Z,48.21
2023-04-28T18:47:58.209Z,48.20
2023-04-28T18:50:25.445Z,48.14
2023-04-28T18:52:51.988Z,48.05
2023-04-28T18:55:18.542Z,48.21
2023-04-28T18:57:45.103Z,48.09
2023-04-28T19:00:11.636Z,48.08
2023-04-28T19:02:38.346Z,48.16
2023-04-28T19:05:05.048Z,48.19
2023-04-28T19:07:31.611Z,48.09
2023-04-28T19:09:58.180Z,48.13
2023-04-28T19:12:24.708Z,48.10
2023-04-28T19:14:51.258Z,48.00
2023-04-28T19:17:17.803Z,48.15
2023-04-28T19:19:44.401Z,48.05
2023-04-28T19:22:10.934Z,48.07
2023-04-28T19:24:37.473Z,48.17
2023-04-28T19:27:04.016Z,48.11
2023-04-28T19:29:30.586Z,48.18
2023-04-28T19:31:57.153Z,48.05
2023-04-28T19:34:23.699Z,48.18
2023-04-28T19:36:50.243Z,48.08
2023-04-28T19:39:16.803Z,48.07
2023-04-28T19:41:43.583Z,48.17
2023-04-28T19:44:10.156Z,48.09
2023-04-28T19:46:36.785Z,48.25
2023-04-28T19:49:03.444Z,48.22
2023-04-28T19:51:29.989Z,48.25
2023-04-28T19:53:56.547Z,48.26
2023-04-28T19:56:23.095Z,48.21
2023-04-28T19:58:49.640Z,48.12
2023-04-28T20:01:16.252Z,48.18
2023-04-28T20:03:43.171Z,48.11
2023-04-28T20:06:09.858Z,48.05
2023-04-28T20:08:36.420Z,48.03
2023-04-28T20:11:02.968Z,48.19
2023-04-28T20:13:29.520Z,48.22
2023-04-28T20:15:56.120Z,48.21
2023-04-28T20:18:22.688Z,48.10
2023-04-28T20:20:49.217Z,48.17
2023-04-28T20:23:15.764Z,48.31
2023-04-28T20:25:42.322Z,48.22
2023-04-28T20:28:08.860Z,48.26
2023-04-28T20:30:35.447Z,48.25
2023-04-28T20:33:02.042Z,48.24
2023-04-28T20:35:28.631Z,48.22
2023-04-28T20:37:55.184Z,48.22
2023-04-28T20:40:21.716Z,48.11
2023-04-28T20:42:48.244Z,48.23
2023-04-28T20:45:14.776Z,48.05
2023-04-28T20:47:41.366Z,48.05
2023-04-28T20:50:07.929Z,48.03
2023-04-28T20:52:34.483Z,48.12
2023-04-28T20:55:01.023Z,47.93
2023-04-28T20:57:27.552Z,47.98
2023-04-28T20:59:54.103Z,48.07
2023-04-28T21:02:20.754Z,47.93
2023-04-28T21:04:47.359Z,48.11
2023-04-28T21:07:13.913Z,48.12
2023-04-28T21:09:40.454Z,48.14
2023-04-28T21:12:07.011Z,48.06
2023-04-28T21:14:33.552Z,48.02
2023-04-28T21:17:00.192Z,48.00
2023-04-28T21:19:26.752Z,47.93
2023-04-28T21:21:53.298Z,48.06
2023-04-28T21:24:19.860Z,47.90
2023-04-28T21:26:46.390Z,48.01
2023-04-28T21:29:12.932Z,48.02
2023-04-28T21:31:39.525Z,48.00
2023-04-28T21:34:06.165Z,48.01
2023-04-28T21:36:32.728Z,47.85
2023-04-28T21:38:59.293Z,47.91
2023-04-28T21:41:25.842Z,48.08
2023-04-28T21:43:52.370Z,48.07
2023-04-28T21:46:18.945Z,47.91
2023-04-28T21:48:45.587Z,47.91
2023-04-28T21:51:12.153Z,47.91
2023-04-28T21:53:38.718Z,47.84
2023-04-28T21:56:05.256Z,47.99
2023-04-28T21:58:31.805Z,47.98
2023-04-28T22:00:58.433Z,47.89
2023-04-28T22:03:25.126Z,47.97
2023-04-28T22:05:51.741Z,48.08
2023-04-28T22:08:18.264Z,48.05
2023-04-28T22:10:44.810Z,48.04
2023-04-28T22:13:11.345Z,47.97
2023-04-28T22:15:37.894Z,48.00
2023-04-28T22:18:04.522Z,48.06
2023-04-28T22:20:31.136Z,47.89
2023-04-28T22:22:57.753Z,48.07
2023-04-28T22:25:24.434Z,48.06
2023-04-28T22:27:50.987Z,48.06
2023-04-28T22:30:17.520Z,47.94
2023-04-28T22:32:44.108Z,47.99
2023-04-28T22:35:10.639Z,48.06
2023-04-28T22:37:37.191Z,48.05
2023-04-28T22:40:03.756Z,47.90
2023-04-28T22:42:30.325Z,47.97
2023-04-28T22:44:56.855Z,47.98
2023-04-28T22:47:23.423Z,48.02
2023-04-28T22:49:50.208Z,48.02
2023-04-28T22:52:16.899Z,48.20
2023-04-28T22:54:43.435Z,48.23
2023-04-28T22:57:09.985Z,48.21
2023-04-28T22:59:36.542Z,48.14
2023-04-28T23:02:03.150Z,48.15
2023-04-28T23:04:30.156Z,48.17
2023-04-28T23:06:56.870Z,48.08
2023-04-28T23:09:23.433Z,48.13
2023-04-28T23:11:49.986Z,48.09
2023-04-28T23:14:16.577Z,48.19
2023-04-28T23:16:43.099Z,48.24
2023-04-28T23:19:09.679Z,48.35
2023-04-28T23:21:36.305Z,48.35
2023-04-28T23:24:02.832Z,48.29
2023-04-28T23:26:29.392Z,48.23
2023-04-28T23:28:55.930Z,48.12
2023-04-28T23:31:22.533Z,48.15
2023-04-28T23:33:49.088Z,48.17
2023-04-28T23:36:15.632Z,48.24
2023-04-28T23:38:42.184Z,48.24
2023-04-28T23:41:08.744Z,48.13
2023-04-28T23:43:35.312Z,48.22
2023-04-28T23:46:01.887Z,48.09
2023-04-28T23:48:28.461Z,48.17
2023-04-28T23:50:55.025Z,48.21
2023-04-28T23:53:21.546Z,48.38
2023-04-28T23:55:48.071Z,48.25
2023-04-28T23:58:14.620Z,48.30
